TimeCDT,TemperatureF,Dew PointF,Humidity,Sea Level PressureIn,VisibilityMPH,Wind Direction,Wind SpeedMPH,Gust SpeedMPH,PrecipitationIn,Events,Conditions,WindDirDegrees,DateUTC
12:15 AM,63.3,45.9,53,29.86,10.0,Calm,Calm,-,N/A,,Clear,0,2013-05-16 05:15:00
12:35 AM,68.4,43.7,41,29.85,10.0,SE,5.8,-,N/A,,Mostly Cloudy,140,2013-05-16 05:35:00
12:55 AM,67.8,45.7,45,29.85,10.0,ENE,8.1,-,N/A,,Overcast,70,2013-05-16 05:55:00
1:15 AM,68.5,45.5,44,29.85,10.0,NNE,5.8,-,N/A,,Overcast,20,2013-05-16 06:15:00
1:35 AM,66.2,47.5,51,29.85,10.0,NNE,5.8,-,N/A,,Overcast,20,2013-05-16 06:35:00
1:55 AM,66.4,47.3,50,29.85,10.0,NNE,4.6,-,N/A,,Mostly Cloudy,30,2013-05-16 06:55:00
2:15 AM,67.8,46.0,46,29.85,10.0,NE,5.8,-,N/A,,Overcast,40,2013-05-16 07:15:00
2:35 AM,66.9,45.7,46,29.84,10.0,ENE,5.8,-,N/A,,Mostly Cloudy,60,2013-05-16 07:35:00
2:55 AM,66.4,45.3,47,29.84,10.0,NNE,4.6,-,N/A,,Scattered Clouds,30,2013-05-16 07:55:00
3:15 AM,64.8,46.6,52,29.85,10.0,NE,4.6,-,N/A,,Scattered Clouds,40,2013-05-16 08:15:00
3:35 AM,63.1,47.3,56,29.84,10.0,Calm,Calm,-,N/A,,Scattered Clouds,0,2013-05-16 08:35:00
3:55 AM,62.6,46.9,57,29.85,10.0,North,4.6,-,N/A,,Clear,350,2013-05-16 08:55:00
4:15 AM,62.2,46.6,57,29.85,10.0,Calm,Calm,-,N/A,,Clear,0,2013-05-16 09:15:00
4:35 AM,61.9,46.6,57,29.85,10.0,North,5.8,-,N/A,,Clear,350,2013-05-16 09:35:00
4:55 AM,60.6,47.5,62,29.85,10.0,North,3.5,-,N/A,,Clear,10,2013-05-16 09:55:00
5:15 AM,59.9,46.9,62,29.84,10.0,Calm,Calm,-,N/A,,Clear,0,2013-05-16 10:15:00
5:35 AM,58.8,47.5,66,29.84,10.0,North,3.5,-,N/A,,Clear,350,2013-05-16 10:35:00
5:55 AM,59.2,47.3,65,29.85,10.0,North,6.9,-,N/A,,Clear,350,2013-05-16 10:55:00
6:15 AM,57.7,47.3,68,29.85,10.0,NW,3.5,-,N/A,,Clear,320,2013-05-16 11:15:00
6:35 AM,58.1,47.8,69,29.86,10.0,NNW,3.5,-,N/A,,Clear,340,2013-05-16 11:35:00
6:55 AM,59.4,47.8,66,29.87,10.0,North,4.6,-,N/A,,Clear,350,2013-05-16 11:55:00
7:15 AM,60.1,47.8,64,29.87,10.0,Calm,Calm,-,N/A,,Clear,0,2013-05-16 12:15:00
7:35 AM,62.6,47.1,57,29.87,10.0,Calm,Calm,-,N/A,,Clear,0,2013-05-16 12:35:00
7:55 AM,64.2,47.3,54,29.87,10.0,Calm,Calm,-,N/A,,Clear,0,2013-05-16 12:55:00
8:15 AM,66.4,48.0,52,29.87,10.0,Calm,Calm,-,N/A,,Clear,0,2013-05-16 13:15:00
8:35 AM,67.8,48.7,50,29.87,10.0,East,3.5,-,N/A,,Scattered Clouds,90,2013-05-16 13:35:00
8:55 AM,70.0,49.5,48,29.87,10.0,Calm,Calm,-,N/A,,Mostly Cloudy,0,2013-05-16 13:55:00
9:15 AM,71.8,49.8,46,29.87,10.0,East,4.6,-,N/A,,Scattered Clouds,90,2013-05-16 14:15:00
9:35 AM,73.6,51.8,46,29.86,10.0,East,6.9,-,N/A,,Clear,80,2013-05-16 14:35:00
9:55 AM,74.3,53.1,47,29.85,10.0,East,5.8,-,N/A,,Clear,80,2013-05-16 14:55:00
10:15 AM,74.5,54.7,50,29.85,10.0,East,8.1,-,N/A,,Clear,100,2013-05-16 15:15:00
10:35 AM,75.4,56.8,52,29.85,10.0,East,8.1,-,N/A,,Clear,100,2013-05-16 15:35:00
10:55 AM,76.3,58.1,53,29.85,10.0,East,5.8,-,N/A,,Clear,100,2013-05-16 15:55:00
11:15 AM,77.4,59.0,53,29.85,10.0,East,10.4,-,N/A,,Scattered Clouds,100,2013-05-16 16:15:00
11:35 AM,78.3,58.6,51,29.85,10.0,ESE,12.7,19.6,N/A,,Overcast,120,2013-05-16 16:35:00
11:55 AM,78.1,60.1,54,29.85,10.0,SE,11.5,18.4,N/A,,Mostly Cloudy,140,2013-05-16 16:55:00
12:15 PM,79.2,58.3,49,29.84,10.0,SSE,9.2,-,N/A,,Mostly Cloudy,150,2013-05-16 17:15:00
12:35 PM,80.6,59.0,48,29.83,10.0,SSE,15.0,19.6,N/A,,Mostly Cloudy,160,2013-05-16 17:35:00
12:55 PM,80.8,60.6,50,29.83,10.0,South,15.0,19.6,N/A,,Overcast,180,2013-05-16 17:55:00
1:15 PM,80.6,60.6,50,29.81,10.0,South,15.0,18.4,N/A,,Overcast,180,2013-05-16 18:15:00
1:35 PM,82.8,59.7,45,29.80,10.0,South,12.7,20.7,N/A,,Mostly Cloudy,170,2013-05-16 18:35:00
2:15 PM,83.5,58.1,42,29.80,10.0,SSW,13.8,23.0,N/A,,Scattered Clouds,200,2013-05-16 19:15:00
2:35 PM,84.2,56.8,39,29.80,10.0,South,12.7,-,N/A,,Scattered Clouds,190,2013-05-16 19:35:00
2:55 PM,84.6,55.9,37,29.80,10.0,SSW,12.7,-,N/A,,Mostly Cloudy,200,2013-05-16 19:55:00
3:15 PM,86.0,56.3,36,29.80,10.0,SSW,11.5,20.7,N/A,,Overcast,210,2013-05-16 20:15:00
3:35 PM,86.5,55.6,35,29.80,10.0,SSW,15.0,20.7,N/A,,Scattered Clouds,200,2013-05-16 20:35:00
3:55 PM,85.5,54.1,34,29.80,10.0,South,12.7,-,N/A,,Scattered Clouds,190,2013-05-16 20:55:00
4:15 PM,84.9,53.6,34,29.79,10.0,SSW,11.5,20.7,N/A,,Scattered Clouds,200,2013-05-16 21:15:00
4:35 PM,86.2,53.4,32,29.78,10.0,South,12.7,21.9,N/A,,Scattered Clouds,190,2013-05-16 21:35:00
5:15 PM,85.3,54.3,34,29.77,10.0,SW,12.7,21.9,N/A,,Scattered Clouds,220,2013-05-16 22:15:00
5:35 PM,85.6,54.0,34,29.77,10.0,SSW,13.8,23.0,N/A,,Scattered Clouds,200,2013-05-16 22:35:00
5:55 PM,85.1,54.0,34,29.76,10.0,SW,11.5,16.1,N/A,,Clear,220,2013-05-16 22:55:00
6:15 PM,84.9,54.9,36,29.76,10.0,SSW,9.2,-,N/A,,Clear,210,2013-05-16 23:15:00
6:35 PM,84.2,55.2,37,29.76,10.0,SSW,8.1,19.6,N/A,,Clear,200,2013-05-16 23:35:00
6:55 PM,83.3,56.1,39,29.76,10.0,South,11.5,19.6,N/A,,Scattered Clouds,190,2013-05-16 23:55:00
7:15 PM,82.8,56.7,41,29.77,10.0,SSW,9.2,-,N/A,,Scattered Clouds,210,2013-05-17 00:15:00
7:35 PM,80.6,56.7,44,29.77,10.0,South,11.5,-,N/A,,Clear,170,2013-05-17 00:35:00
7:55 PM,78.8,57.2,47,29.78,10.0,South,6.9,-,N/A,,Clear,180,2013-05-17 00:55:00
8:15 PM,78.8,57.2,47,29.80,10.0,SSW,5.8,-,N/A,,Scattered Clouds,200,2013-05-17 01:15:00
8:35 PM,76.8,57.4,51,29.80,10.0,SW,5.8,-,N/A,,Scattered Clouds,220,2013-05-17 01:35:00
8:55 PM,76.3,57.2,52,29.80,10.0,SSW,6.9,-,N/A,,Clear,200,2013-05-17 01:55:00
9:15 PM,73.0,57.6,58,29.80,10.0,SSW,4.6,-,N/A,,Clear,200,2013-05-17 02:15:00
9:35 PM,70.9,59.0,66,29.81,10.0,Calm,Calm,-,N/A,,Clear,0,2013-05-17 02:35:00
9:55 PM,69.8,58.8,68,29.81,10.0,WNW,4.6,-,N/A,,Clear,300,2013-05-17 02:55:00
10:15 PM,68.0,59.0,73,29.82,10.0,North,3.5,-,N/A,,Clear,350,2013-05-17 03:15:00
10:35 PM,67.1,58.1,73,29.83,10.0,Calm,Calm,-,N/A,,Clear,0,2013-05-17 03:35:00
10:55 PM,67.8,58.3,71,29.83,10.0,Calm,Calm,-,N/A,,Clear,0,2013-05-17 03:55:00
11:15 PM,68.0,58.8,72,29.83,10.0,Calm,Calm,-,N/A,,Clear,0,2013-05-17 04:15:00
11:35 PM,67.6,57.7,71,29.83,10.0,SSE,3.5,-,N/A,,Clear,160,2013-05-17 04:35:00
11:55 PM,66.2,57.2,73,29.82,10.0,Calm,Calm,-,N/A,,Clear,0,2013-05-17 04:55:00